Time;durP1;ratioP1;P1;durP2;ratioP2;P2;SDS_P1;SDS_P2;PMS_P1;PMS_P2;Temp;Humidity;BMP_temperature;BMP_pressure;BME280_temperature;BME280_humidity;BME280_pressure;Samples;Min_cycle;Max_cycle;Signal;HPM_P1;HPM_P2
2022/02/07 04:25:35;;;;;;;;;0.00;0.00;;;;;16.12;56.64;102041.34;5094560;27;45663;-87
2022/02/07 04:28:01;;;;;;;;;0.00;0.00;;;;;16.29;57.03;102036.84;5089258;27;45382;-88
2022/02/07 04:30:26;;;;;;;;;0.00;0.00;;;;;16.49;56.76;102035.69;5083633;27;45727;-88
2022/02/07 04:32:51;;;;;;;;;1.75;0.00;;;;;16.73;56.71;102033.34;5087302;27;46745;-87
2022/02/07 04:35:17;;;;;;;;;0.00;0.00;;;;;16.99;56.50;102041.66;5086951;27;48433;-88
2022/02/07 04:37:42;;;;;;;;;0.00;0.00;;;;;17.26;56.64;102058.88;5086793;27;45645;-82
2022/02/07 04:40:08;;;;;;;;;0.00;0.00;;;;;17.52;56.30;102068.00;5087016;27;45521;-84
2022/02/07 04:42:33;;;;;;;;;0.00;0.00;;;;;17.80;55.79;102075.25;5090137;27;45304;-84
2022/02/07 04:52:58;;;;;;;;;0.00;0.00;;;;;18.85;54.76;102077.44;5085831;27;45688;-81
2022/02/07 04:58:12;;;;;;;;;0.00;0.00;;;;;19.36;54.01;102082.03;5074884;27;45707;-82
2022/02/07 05:00:46;;;;;;;;;0.00;0.00;;;;;19.56;53.70;102077.94;5086985;27;45399;-84
2022/02/07 05:03:17;;;;;;;;;0.00;0.00;;;;;19.75;53.17;102082.00;5089020;27;45355;-85
2022/02/07 05:16:19;;;;;;;;;1.00;0.00;;;;;20.42;51.82;102106.81;5071244;27;46115;-86
2022/02/07 05:18:45;;;;;;;;;1.00;1.00;;;;;20.52;52.22;102115.09;5088740;27;45601;-83
2022/02/07 05:21:11;;;;;;;;;0.00;0.00;;;;;20.60;51.42;102117.22;5086277;27;45472;-86
2022/02/07 05:23:37;;;;;;;;;0.00;0.00;;;;;20.66;51.34;102141.91;5084925;27;45633;-85
2022/02/07 05:26:03;;;;;;;;;0.67;0.67;;;;;20.75;51.06;102142.16;5086221;27;45582;-87
2022/02/07 05:28:28;;;;;;;;;1.00;1.00;;;;;20.80;51.08;102140.84;5083450;27;45445;-90
2022/02/07 05:30:54;;;;;;;;;1.00;0.00;;;;;20.87;50.96;102143.97;5070726;27;45446;-89
2022/02/07 05:33:19;;;;;;;;;1.00;0.00;;;;;20.94;51.36;102157.88;5088222;27;45818;-85
2022/02/07 05:35:44;;;;;;;;;0.00;0.00;;;;;21.00;51.30;102159.22;5079100;27;46162;-87
2022/02/07 05:38:10;;;;;;;;;0.00;0.00;;;;;21.09;50.86;102160.38;5072209;27;45801;-90
2022/02/07 05:43:04;;;;;;;;;0.00;0.00;;;;;21.26;50.98;102162.59;5072349;27;45458;-86
2022/02/07 05:45:30;;;;;;;;;1.67;0.00;;;;;21.36;51.03;102162.78;5075878;27;46694;-88
2022/02/07 05:47:56;;;;;;;;;0.00;0.00;;;;;21.42;50.69;102166.84;5073288;27;45639;-89
2022/02/07 05:50:21;;;;;;;;;0.00;0.00;;;;;21.53;50.12;102174.09;5077467;27;45468;-89
2022/02/07 05:52:46;;;;;;;;;0.33;0.33;;;;;21.62;50.02;102192.28;5079932;27;45429;-88
2022/02/07 05:55:12;;;;;;;;;0.00;0.00;;;;;21.71;50.23;102194.28;5071475;28;53947;-83
2022/02/07 05:57:37;;;;;;;;;0.00;0.00;;;;;21.79;50.13;102196.38;5075238;27;45337;-84
2022/02/07 06:00:05;;;;;;;;;1.00;1.00;;;;;21.88;49.60;102202.03;5070622;28;45468;-91
2022/02/07 06:02:30;;;;;;;;;0.00;0.00;;;;;21.95;49.48;102201.44;5072250;28;45521;-81
2022/02/07 06:04:55;;;;;;;;;0.33;0.33;;;;;22.02;49.67;102204.50;5072785;28;49630;-83
2022/02/07 06:07:21;;;;;;;;;0.00;0.00;;;;;22.09;49.41;102211.16;5071033;28;55730;-81
2022/02/07 06:09:46;;;;;;;;;1.67;0.00;;;;;22.14;49.20;102212.63;5074583;27;45364;-80
2022/02/07 06:12:12;;;;;;;;;0.00;0.00;;;;;22.18;49.24;102206.84;5073379;28;45463;-76
2022/02/07 06:14:37;;;;;;;;;2.00;0.00;;;;;22.23;48.67;102214.56;5071353;27;45421;-76
2022/02/07 06:17:03;;;;;;;;;0.00;0.00;;;;;22.21;48.12;102222.81;5069753;27;45596;-78
2022/02/07 06:19:28;;;;;;;;;0.00;0.00;;;;;22.19;48.18;102222.06;5073269;27;45737;-76
2022/02/07 06:21:55;;;;;;;;;0.00;0.00;;;;;22.15;47.81;102227.88;5073502;27;45426;-77
2022/02/07 06:24:21;;;;;;;;;0.00;0.00;;;;;22.11;47.49;102229.94;5074508;27;47234;-78
2022/02/07 06:26:46;;;;;;;;;0.00;0.00;;;;;22.01;47.70;102227.13;5060330;28;45688;-79
2022/02/07 06:29:11;;;;;;;;;0.00;0.00;;;;;22.01;47.99;102240.63;5071456;28;45511;-78
2022/02/07 06:31:37;;;;;;;;;3.00;2.00;;;;;21.98;47.59;102246.28;5072348;28;45427;-78
2022/02/07 06:34:02;;;;;;;;;0.67;0.33;;;;;21.95;47.11;102252.78;5071064;27;46014;-79
2022/02/07 06:36:27;;;;;;;;;0.00;0.00;;;;;21.92;47.79;102249.47;5070929;28;45322;-79
2022/02/07 06:38:53;;;;;;;;;1.00;0.00;;;;;21.90;47.90;102257.69;5070009;27;45797;-81
2022/02/07 06:41:18;;;;;;;;;0.33;0.00;;;;;21.90;47.61;102259.56;5069446;27;45523;-83
2022/02/07 06:43:44;;;;;;;;;2.33;0.33;;;;;21.88;47.30;102256.97;5071404;28;45581;-85
2022/02/07 06:46:09;;;;;;;;;0.00;0.00;;;;;21.83;47.73;102251.06;5070571;27;45521;-83
2022/02/07 06:48:35;;;;;;;;;1.00;1.00;;;;;21.82;47.36;102262.84;5070528;28;45510;-84
2022/02/07 06:51:01;;;;;;;;;0.00;0.00;;;;;21.79;47.81;102266.66;5071738;28;45581;-87
2022/02/07 06:53:27;;;;;;;;;2.33;0.00;;;;;21.70;47.17;102261.94;5073478;27;45793;-89
2022/02/07 06:55:52;;;;;;;;;1.00;1.00;;;;;21.75;47.93;102289.50;5071281;27;47244;-83
2022/02/07 06:58:17;;;;;;;;;4.33;2.00;;;;;21.72;47.43;102289.75;5073260;27;46001;-85
2022/02/07 07:00:43;;;;;;;;;8.67;6.00;;;;;21.71;47.72;102296.97;5073575;27;45569;-80
2022/02/07 07:03:15;;;;;;;;;3.00;2.67;;;;;21.66;47.61;102292.91;5073014;28;46015;-82
2022/02/07 07:05:41;;;;;;;;;2.00;2.00;;;;;21.68;47.76;102309.84;5069266;27;45487;-82
2022/02/07 07:08:06;;;;;;;;;2.67;2.00;;;;;21.65;47.53;102296.56;5065797;27;45525;-79
2022/02/07 07:10:32;;;;;;;;;3.67;2.33;;;;;21.62;47.28;102299.50;5072383;27;45512;-78
2022/02/07 07:13:05;;;;;;;;;5.67;3.00;;;;;21.58;45.59;102299.72;5067758;28;45775;-80
2022/02/07 07:15:38;;;;;;;;;9.67;7.33;;;;;21.43;46.14;102290.09;5072067;28;45434;-86
2022/02/07 07:18:04;;;;;;;;;8.33;5.33;;;;;21.51;46.78;102313.84;5072718;28;45485;-85
2022/02/07 07:20:29;;;;;;;;;6.33;3.33;;;;;21.50;46.61;102314.81;5070668;28;45480;-85
2022/02/07 07:22:57;;;;;;;;;7.00;5.33;;;;;21.48;46.31;102309.53;5067524;28;45577;-80
2022/02/07 07:25:23;;;;;;;;;8.67;4.00;;;;;21.42;46.15;102318.94;5059904;27;45790;-78
2022/02/07 07:27:58;;;;;;;;;9.00;5.00;;;;;21.41;46.61;102322.63;5070959;28;45909;-79
2022/02/07 07:30:27;;;;;;;;;6.00;3.67;;;;;21.40;46.81;102331.72;5066459;28;45476;-80
2022/02/07 07:32:57;;;;;;;;;4.00;2.33;;;;;21.39;46.70;102348.91;5069811;27;50307;-79
2022/02/07 07:35:22;;;;;;;;;2.33;0.00;;;;;21.40;46.96;102352.44;5068986;28;46007;-79
2022/02/07 07:37:48;;;;;;;;;5.00;4.33;;;;;21.36;47.11;102359.94;5070298;27;45477;-79
2022/02/07 07:40:13;;;;;;;;;6.67;3.33;;;;;21.36;47.52;102364.47;5069173;27;45585;-77
2022/02/07 07:42:38;;;;;;;;;5.67;3.33;;;;;21.37;46.78;102368.91;5071992;28;45461;-79
2022/02/07 07:45:05;;;;;;;;;7.00;3.00;;;;;21.36;47.03;102375.25;5070787;28;45374;-77
2022/02/07 07:47:32;;;;;;;;;6.33;5.00;;;;;21.33;47.01;102376.34;5064319;28;45610;-77
2022/02/07 07:50:11;;;;;;;;;3.67;2.00;;;;;21.31;47.24;102381.91;5057748;28;45329;-77
2022/02/07 08:01:17;;;;;;;;;6.67;5.67;;;;;21.27;47.32;102412.81;5062922;28;45475;-81
2022/02/07 08:03:41;;;;;;;;;10.00;8.33;;;;;21.21;43.74;102428.59;5067855;28;45855;-77
2022/02/07 08:06:17;;;;;;;;;12.33;10.00;;;;;21.14;44.41;102439.81;5067772;28;45525;-79
2022/02/07 08:11:38;;;;;;;;;9.33;6.33;;;;;21.13;45.31;102448.91;5011923;28;45538;-80
2022/02/07 08:14:04;;;;;;;;;8.67;6.00;;;;;21.14;45.40;102447.91;5007140;28;46136;-83
2022/02/07 08:16:30;;;;;;;;;3.33;3.33;;;;;21.16;46.13;102451.38;5007184;28;45594;-78
2022/02/07 08:19:01;;;;;;;;;11.00;5.67;;;;;21.18;45.96;102460.22;5008506;28;45581;-80
2022/02/07 08:21:28;;;;;;;;;9.00;6.67;;;;;21.15;46.60;102452.38;5016200;28;45483;-76
2022/02/07 08:23:53;;;;;;;;;5.00;4.67;;;;;21.18;46.44;102465.63;4999109;28;46304;-75
2022/02/07 08:26:19;;;;;;;;;6.67;5.00;;;;;21.20;45.96;102481.72;4999714;28;45546;-76
2022/02/07 08:28:45;;;;;;;;;8.00;5.67;;;;;21.21;46.27;102474.50;5008114;28;46165;-77
2022/02/07 08:31:11;;;;;;;;;7.33;5.33;;;;;21.22;46.14;102479.78;5009135;28;45502;-81
2022/02/07 08:33:37;;;;;;;;;6.33;5.00;;;;;21.22;46.52;102473.50;5005441;28;45495;-82
2022/02/07 08:36:05;;;;;;;;;7.50;6.00;;;;;21.28;46.42;102486.56;5002831;28;45595;-81
2022/02/07 08:38:30;;;;;;;;;6.00;4.67;;;;;21.32;46.40;102497.06;5004786;28;45445;-82
2022/02/07 08:40:56;;;;;;;;;10.00;6.00;;;;;21.37;46.45;102502.09;5004647;28;45486;-75
2022/02/07 08:43:21;;;;;;;;;4.00;2.67;;;;;21.44;46.21;102500.69;5005356;28;51682;-77
2022/02/07 08:45:46;;;;;;;;;8.00;5.67;;;;;21.46;46.72;102506.84;5014979;28;50517;-78
2022/02/07 08:48:12;;;;;;;;;9.67;5.33;;;;;21.53;46.34;102509.97;5025815;28;45725;-78
2022/02/07 08:50:38;;;;;;;;;7.33;6.67;;;;;21.57;46.43;102519.56;5068705;27;49349;-79
2022/02/07 08:53:05;;;;;;;;;8.00;6.33;;;;;21.61;46.73;102525.59;5062313;27;47151;-80
2022/02/07 08:55:36;;;;;;;;;5.33;5.00;;;;;21.64;46.78;102525.38;5069179;27;45510;-79
2022/02/07 08:58:09;;;;;;;;;5.00;4.33;;;;;21.76;46.41;102520.94;5064931;27;46514;-79
2022/02/07 09:01:05;;;;;;;;;8.00;7.00;;;;;21.84;46.79;102523.09;5067759;28;45335;-80
2022/02/07 09:06:33;;;;;;;;;7.67;4.67;;;;;22.03;46.53;102541.47;5058281;27;45965;-87
2022/02/07 09:09:17;;;;;;;;;8.00;5.33;;;;;22.11;46.76;102558.00;5070238;28;45422;-83
2022/02/07 09:11:43;;;;;;;;;8.00;4.67;;;;;22.18;46.61;102563.81;5062516;28;45549;-84
2022/02/07 09:14:18;;;;;;;;;3.67;3.67;;;;;22.23;46.49;102569.75;5065855;28;45906;-88
2022/02/07 09:16:44;;;;;;;;;5.67;5.00;;;;;22.27;46.06;102569.53;5071397;27;45478;-81
2022/02/07 09:19:10;;;;;;;;;9.00;6.00;;;;;22.32;46.63;102576.28;5057306;28;46697;-82
2022/02/07 09:21:36;;;;;;;;;5.00;5.00;;;;;22.36;46.62;102594.00;5076294;27;45408;-83
2022/02/07 09:24:02;;;;;;;;;5.67;5.00;;;;;22.40;46.24;102596.50;5074953;28;45398;-83
2022/02/07 09:26:28;;;;;;;;;6.00;5.33;;;;;22.42;46.52;102599.94;5071951;27;45776;-85
2022/02/07 09:28:53;;;;;;;;;4.33;3.67;;;;;22.40;46.47;102602.75;5063012;27;45280;-85
2022/02/07 09:31:21;;;;;;;;;5.67;4.33;;;;;22.46;46.48;102604.13;5078223;27;45516;-85
2022/02/07 09:33:47;;;;;;;;;3.33;3.33;;;;;22.47;46.59;102603.16;5074480;28;45430;-80
2022/02/07 09:36:14;;;;;;;;;7.00;5.67;;;;;22.50;46.79;102621.88;5059724;28;45711;-80
2022/02/07 09:38:41;;;;;;;;;5.67;4.00;;;;;22.53;46.63;102623.47;5072623;27;45668;-82
2022/02/07 09:41:08;;;;;;;;;8.67;5.00;;;;;22.55;46.62;102627.84;5073874;28;45403;-80
2022/02/07 09:43:40;;;;;;;;;8.00;3.67;;;;;22.62;46.87;102637.22;5072169;27;46568;-84
2022/02/07 09:46:09;;;;;;;;;7.00;5.00;;;;;22.69;46.82;102648.47;5062964;27;45481;-83
2022/02/07 09:48:39;;;;;;;;;4.67;3.67;;;;;22.75;47.09;102655.22;5075890;27;45520;-84
2022/02/07 09:51:08;;;;;;;;;7.00;4.00;;;;;22.80;46.94;102661.16;5072312;28;47981;-81
2022/02/07 09:53:34;;;;;;;;;6.00;5.67;;;;;22.87;46.63;102669.66;5069961;28;45383;-81
2022/02/07 09:56:03;;;;;;;;;4.00;2.67;;;;;22.94;46.67;102672.78;5066401;27;45463;-84
2022/02/07 09:58:32;;;;;;;;;4.00;4.00;;;;;22.98;45.52;102672.44;5070471;27;53281;-81
2022/02/07 10:01:00;;;;;;;;;3.00;2.33;;;;;22.94;46.07;102673.66;5072079;28;45587;-79
2022/02/07 10:03:34;;;;;;;;;3.67;3.67;;;;;22.98;45.64;102682.38;5079196;27;45457;-77
2022/02/07 10:06:11;;;;;;;;;2.00;2.00;;;;;22.99;45.70;102689.53;5082311;27;45532;-77
2022/02/07 10:08:52;;;;;;;;;4.00;2.00;;;;;23.00;45.79;102686.69;5059404;27;45468;-74
2022/02/07 10:11:39;;;;;;;;;5.33;4.00;;;;;23.05;45.38;102690.91;5067490;27;45867;-78
2022/02/07 10:14:17;;;;;;;;;5.67;3.67;;;;;23.00;45.27;102697.53;5068810;27;45937;-78
2022/02/07 10:16:52;;;;;;;;;5.33;3.33;;;;;23.05;45.78;102704.44;5067256;28;45516;-77
2022/02/07 10:22:06;;;;;;;;;5.00;3.67;;;;;23.03;45.25;102718.97;5060059;27;45511;-81
2022/02/07 10:47:13;;;;;;;;;3.33;2.67;;;;;23.41;45.86;102729.69;5063207;28;45422;-77
2022/02/07 10:50:13;;;;;;;;;5.00;3.00;;;;;23.50;45.73;102738.97;5064733;27;45525;-78
2022/02/07 10:52:58;;;;;;;;;5.33;2.67;;;;;23.54;45.93;102733.16;5068976;28;45528;-78
2022/02/07 10:55:25;;;;;;;;;5.00;5.00;;;;;23.55;45.58;102732.19;5068464;28;45535;-81
2022/02/07 10:57:52;;;;;;;;;5.67;3.33;;;;;23.61;45.80;102735.38;5064899;27;46787;-90
2022/02/07 11:00:33;;;;;;;;;5.67;2.67;;;;;23.64;46.07;102733.31;5068699;28;45317;-84
2022/02/07 11:03:04;;;;;;;;;2.00;2.00;;;;;23.61;43.95;102728.13;5069419;28;48067;-76
2022/02/07 11:05:49;;;;;;;;;6.67;3.33;;;;;23.48;43.51;102722.81;5070409;28;45552;-79
2022/02/07 11:08:34;;;;;;;;;14.33;8.33;;;;;23.35;43.24;102733.75;5070641;27;46210;-74
2022/02/07 11:13:46;;;;;;;;;5.67;4.00;;;;;23.02;38.87;102730.75;5071843;27;45478;-77
2022/02/07 11:16:26;;;;;;;;;7.00;5.33;;;;;22.58;36.74;102707.94;5068781;28;45425;-80
2022/02/07 11:27:37;;;;;;;;;4.00;4.00;;;;;21.26;35.46;102737.81;5047425;28;45459;-76
2022/02/07 11:30:10;;;;;;;;;6.67;5.33;;;;;21.10;36.60;102721.84;5036278;28;46094;-74
2022/02/07 11:32:38;;;;;;;;;8.67;6.67;;;;;20.96;36.51;102725.44;5044983;28;45436;-74
2022/02/07 11:35:06;;;;;;;;;4.33;4.00;;;;;20.87;36.97;102723.38;5045088;28;45628;-74
2022/02/07 11:37:31;;;;;;;;;7.00;4.33;;;;;20.79;37.38;102719.31;5048205;28;45437;-74
2022/02/07 11:39:56;;;;;;;;;6.67;4.00;;;;;20.74;36.60;102724.16;5048765;28;45499;-74
2022/02/07 11:42:22;;;;;;;;;6.00;5.00;;;;;20.60;36.85;102714.25;5050435;28;45512;-74
2022/02/07 11:44:53;;;;;;;;;8.00;5.33;;;;;20.60;37.30;102727.75;5049626;28;45627;-74
2022/02/07 11:47:30;;;;;;;;;7.67;5.00;;;;;20.52;37.31;102725.56;5046676;28;47257;-74
2022/02/07 11:50:03;;;;;;;;;3.00;3.00;;;;;20.48;35.88;102737.50;5047220;28;45491;-74
2022/02/07 11:52:40;;;;;;;;;9.67;2.33;;;;;20.37;36.44;102737.34;5046357;28;45714;-75
2022/02/07 11:55:12;;;;;;;;;7.67;6.00;;;;;20.32;39.00;102726.00;5040772;28;45503;-75
2022/02/07 11:57:41;;;;;;;;;11.00;9.00;;;;;20.40;40.17;102729.06;5050453;28;46013;-77
2022/02/07 12:00:15;;;;;;;;;12.67;6.33;;;;;20.51;41.07;102736.44;5043327;28;45536;-74
2022/02/07 12:02:48;;;;;;;;;15.00;8.67;;;;;20.60;40.94;102735.84;5038911;28;45619;-77
2022/02/07 12:05:19;;;;;;;;;16.33;7.67;;;;;20.76;41.31;102741.09;5068474;28;45358;-79
2022/02/07 12:08:07;;;;;;;;;10.33;5.33;;;;;20.94;41.54;102743.59;5062190;27;47858;-76
2022/02/07 12:10:41;;;;;;;;;12.67;8.67;;;;;21.13;42.24;102729.69;5068054;27;46389;-78
2022/02/07 12:13:43;;;;;;;;;12.33;8.67;;;;;21.36;42.29;102740.78;5056212;28;45544;-76
2022/02/07 12:16:24;;;;;;;;;13.33;8.33;;;;;21.57;42.25;102748.34;5053799;28;45485;-75
2022/02/07 12:18:58;;;;;;;;;11.00;8.00;;;;;21.79;41.96;102746.91;5070223;27;45556;-78
2022/02/07 12:21:29;;;;;;;;;11.00;8.00;;;;;21.93;42.05;102740.50;5073490;28;46561;-78
2022/02/07 12:23:57;;;;;;;;;8.33;4.00;;;;;22.11;42.23;102735.59;5061530;27;45472;-78
2022/02/07 12:26:24;;;;;;;;;10.00;6.33;;;;;22.24;42.08;102741.84;5065782;27;45349;-75
2022/02/07 12:28:57;;;;;;;;;11.33;8.00;;;;;22.33;42.04;102734.06;5066732;27;45473;-78
2022/02/07 12:31:23;;;;;;;;;8.33;6.00;;;;;22.42;42.47;102725.28;5069705;27;45955;-74
2022/02/07 12:34:12;;;;;;;;;15.00;7.33;;;;;22.54;42.25;102725.34;5060376;27;45631;-78
2022/02/07 12:36:38;;;;;;;;;10.67;9.00;;;;;22.63;41.85;102732.78;5070017;27;45377;-81
2022/02/07 12:39:09;;;;;;;;;15.67;9.33;;;;;22.71;42.11;102735.81;5067851;28;45498;-74
2022/02/07 12:41:36;;;;;;;;;13.00;9.00;;;;;22.76;42.47;102736.31;5069417;28;46209;-75
2022/02/07 12:44:03;;;;;;;;;9.67;7.00;;;;;22.85;42.45;102737.47;5067946;28;45428;-75
2022/02/07 12:46:31;;;;;;;;;9.33;6.67;;;;;22.92;42.58;102734.31;5071441;28;45580;-75
2022/02/07 12:48:59;;;;;;;;;12.00;9.00;;;;;22.99;42.48;102732.84;5069794;27;45549;-75
2022/02/07 12:51:37;;;;;;;;;8.33;6.33;;;;;23.08;42.75;102734.84;5079927;27;46212;-76
2022/02/07 12:54:03;;;;;;;;;9.67;5.67;;;;;23.14;42.72;102728.13;5069186;28;45712;-75
2022/02/07 12:56:30;;;;;;;;;10.33;7.00;;;;;23.20;42.39;102724.06;5062669;28;45431;-76
2022/02/07 12:58:55;;;;;;;;;13.33;7.67;;;;;23.24;42.79;102723.72;5060095;28;45410;-76
2022/02/07 13:01:35;;;;;;;;;9.00;7.67;;;;;23.33;42.69;102732.16;5070278;28;46880;-75
2022/02/07 13:04:06;;;;;;;;;10.67;9.33;;;;;23.41;42.63;102730.56;5067604;27;45482;-79
2022/02/07 13:06:40;;;;;;;;;11.00;7.00;;;;;23.49;43.01;102729.09;5073265;28;47895;-78
2022/02/07 13:09:19;;;;;;;;;9.67;6.00;;;;;23.57;42.90;102720.38;5064254;28;45764;-75
2022/02/07 13:12:00;;;;;;;;;8.00;6.67;;;;;23.64;42.82;102719.75;5061002;28;45466;-75
2022/02/07 13:14:25;;;;;;;;;10.33;6.00;;;;;23.75;42.65;102728.88;5061585;28;45474;-76
2022/02/07 13:16:51;;;;;;;;;8.33;7.00;;;;;23.83;43.04;102731.88;5063607;28;45696;-76
2022/02/07 13:19:19;;;;;;;;;14.00;8.00;;;;;23.89;42.75;102728.66;5071753;27;45251;-76
2022/02/07 13:21:51;;;;;;;;;6.67;4.33;;;;;23.94;42.62;102721.00;5075500;27;45919;-75
2022/02/07 13:24:25;;;;;;;;;12.00;6.00;;;;;24.03;42.89;102732.94;5066723;28;45474;-76
2022/02/07 13:26:54;;;;;;;;;12.67;7.00;;;;;24.08;42.90;102735.31;5070415;28;45665;-76
2022/02/07 13:29:22;;;;;;;;;5.33;4.33;;;;;24.10;42.72;102736.06;5072978;27;45352;-79
2022/02/07 13:32:04;;;;;;;;;6.33;5.67;;;;;24.14;42.85;102737.53;5066313;27;46394;-77
2022/02/07 13:34:35;;;;;;;;;9.33;6.33;;;;;24.17;42.94;102737.31;5069178;27;45541;-78
2022/02/07 13:37:21;;;;;;;;;3.67;3.67;;;;;24.18;42.71;102727.31;5056830;28;45383;-74
2022/02/07 13:39:59;;;;;;;;;9.67;5.33;;;;;24.18;42.86;102728.19;5071555;28;45691;-73
2022/02/07 13:42:31;;;;;;;;;8.67;4.33;;;;;24.19;42.81;102729.91;5076277;28;46213;-74
2022/02/07 13:45:20;;;;;;;;;8.67;6.00;;;;;24.21;43.06;102743.34;5069211;28;45471;-76
2022/02/07 13:47:49;;;;;;;;;6.00;5.00;;;;;24.22;43.17;102734.22;5072729;27;45509;-77
2022/02/07 13:50:15;;;;;;;;;8.33;6.67;;;;;24.23;43.10;102732.38;5067383;28;45369;-76
2022/02/07 13:52:46;;;;;;;;;5.00;5.00;;;;;24.21;43.44;102738.75;5072128;27;46178;-75
2022/02/07 13:55:13;;;;;;;;;8.33;7.00;;;;;24.25;43.18;102735.81;5070651;28;45459;-76
2022/02/07 13:57:48;;;;;;;;;5.33;3.33;;;;;24.28;43.53;102738.28;5074935;27;45445;-76
2022/02/07 14:00:15;;;;;;;;;5.00;4.67;;;;;24.34;43.27;102741.34;5076342;28;45519;-80
2022/02/07 14:02:41;;;;;;;;;7.33;7.00;;;;;24.28;41.11;102739.13;5064153;27;45813;-80
2022/02/07 14:05:07;;;;;;;;;8.67;5.33;;;;;24.15;40.09;102752.00;5065387;28;45528;-80
2022/02/07 14:07:48;;;;;;;;;8.00;5.00;;;;;23.97;40.63;102754.28;5073729;27;45541;-87
2022/02/07 14:10:19;;;;;;;;;8.00;4.67;;;;;23.84;40.67;102747.13;5058001;28;45889;-75
2022/02/07 14:12:45;;;;;;;;;12.00;8.67;;;;;23.69;41.21;102739.25;5063455;27;47157;-77
2022/02/07 14:15:10;;;;;;;;;13.33;10.00;;;;;23.57;41.22;102742.06;5075249;28;45398;-75
2022/02/07 14:17:41;;;;;;;;;10.67;7.67;;;;;23.52;41.12;102747.81;5070369;28;45431;-79
2022/02/07 14:20:10;;;;;;;;;16.67;8.67;;;;;23.41;41.86;102743.22;5068705;27;45729;-75
2022/02/07 14:22:36;;;;;;;;;12.00;5.00;;;;;23.37;42.03;102742.63;5065647;28;46953;-80
2022/02/07 14:25:02;;;;;;;;;7.33;6.00;;;;;23.39;42.34;102746.09;5057775;28;45521;-79
2022/02/07 14:27:27;;;;;;;;;12.00;7.00;;;;;23.40;42.42;102753.22;5076529;27;45320;-77
2022/02/07 14:29:53;;;;;;;;;13.00;7.33;;;;;23.42;42.82;102753.13;5073780;27;45525;-75
2022/02/07 14:32:18;;;;;;;;;8.00;5.00;;;;;23.45;42.26;102743.88;5071761;28;45786;-82
2022/02/07 14:34:43;;;;;;;;;10.67;7.67;;;;;23.46;42.86;102743.72;5072320;28;53698;-78
2022/02/07 14:37:10;;;;;;;;;10.00;7.00;;;;;23.46;42.33;102743.72;5072492;28;51002;-80
2022/02/07 14:39:36;;;;;;;;;8.00;7.00;;;;;23.46;42.59;102748.31;5067081;27;47411;-79
2022/02/07 14:42:04;;;;;;;;;6.67;4.00;;;;;23.48;43.15;102754.47;5074824;28;45453;-78
2022/02/07 14:44:32;;;;;;;;;8.67;5.67;;;;;23.48;42.57;102749.03;5063799;27;45527;-81
2022/02/07 14:47:13;;;;;;;;;11.33;7.33;;;;;23.45;42.03;102752.84;5066543;28;46394;-81
2022/02/07 14:49:38;;;;;;;;;7.00;5.67;;;;;23.41;42.52;102749.53;5067990;28;45530;-77
2022/02/07 14:52:05;;;;;;;;;9.33;5.67;;;;;23.47;42.47;102760.88;5059791;28;46781;-76
2022/02/07 14:54:32;;;;;;;;;12.67;7.33;;;;;23.49;42.96;102757.06;5065269;27;45468;-76
2022/02/07 14:56:58;;;;;;;;;8.67;6.00;;;;;23.48;42.60;102744.50;5072716;28;45400;-74
2022/02/07 14:59:25;;;;;;;;;6.33;6.33;;;;;23.53;42.76;102747.72;5073382;28;45459;-75
2022/02/07 15:01:52;;;;;;;;;9.67;6.67;;;;;23.57;42.84;102750.19;5070811;27;47221;-78
2022/02/07 15:04:19;;;;;;;;;7.33;5.00;;;;;23.57;42.58;102742.91;5070288;27;45731;-78
2022/02/07 15:06:45;;;;;;;;;11.33;7.33;;;;;23.57;42.13;102734.78;5071695;28;45399;-80
2022/02/07 15:09:10;;;;;;;;;12.00;7.00;;;;;23.48;40.30;102744.50;5056264;28;45297;-77
2022/02/07 15:11:35;;;;;;;;;10.33;7.67;;;;;23.35;39.82;102739.19;5064744;28;46017;-76
2022/02/07 15:14:01;;;;;;;;;9.00;5.00;;;;;23.22;40.47;102744.63;5070623;28;47892;-88
2022/02/07 15:16:26;;;;;;;;;7.33;5.33;;;;;23.15;41.15;102732.53;5068954;27;45411;-86
2022/02/07 15:18:51;;;;;;;;;13.00;8.67;;;;;23.19;41.31;102746.72;5055921;28;48313;-85
2022/02/07 15:21:17;;;;;;;;;10.33;6.00;;;;;23.19;41.17;102735.88;5075820;27;53233;-83
2022/02/07 15:23:42;;;;;;;;;6.67;4.00;;;;;23.20;41.49;102752.00;5072686;27;45541;-81
2022/02/07 15:26:08;;;;;;;;;5.67;5.00;;;;;23.22;41.56;102752.75;5065411;28;45343;-79
2022/02/07 15:28:35;;;;;;;;;9.67;6.67;;;;;23.25;41.19;102754.34;5059030;28;49515;-82
2022/02/07 15:31:03;;;;;;;;;11.00;8.00;;;;;23.22;41.08;102754.63;5067392;27;46632;-81
2022/02/07 15:33:42;;;;;;;;;9.33;4.00;;;;;23.24;41.40;102758.06;5065663;28;45495;-82
2022/02/07 15:36:09;;;;;;;;;6.33;6.00;;;;;23.26;41.19;102754.25;5057226;28;45403;-79
2022/02/07 15:38:35;;;;;;;;;7.67;5.67;;;;;23.30;41.76;102753.03;5066980;27;45552;-80
2022/02/07 15:41:02;;;;;;;;;12.00;8.33;;;;;23.33;41.48;102751.13;5069018;28;45953;-80
2022/02/07 15:43:27;;;;;;;;;10.33;7.33;;;;;23.36;41.68;102748.16;5063184;28;45550;-77
2022/02/07 15:45:52;;;;;;;;;10.00;7.00;;;;;23.37;42.19;102745.31;5070360;28;46087;-78
2022/02/07 15:48:23;;;;;;;;;7.33;5.33;;;;;23.42;41.73;102756.66;5067442;28;45583;-76
2022/02/07 15:50:52;;;;;;;;;7.33;5.67;;;;;23.43;42.03;102747.56;5067419;28;47080;-78
2022/02/07 15:53:17;;;;;;;;;20.67;14.33;;;;;23.42;41.53;102759.38;5068318;28;45502;-75
2022/02/07 15:55:43;;;;;;;;;22.00;13.33;;;;;23.38;41.71;102744.34;5061049;28;45395;-77
2022/02/07 15:58:08;;;;;;;;;13.67;10.33;;;;;23.37;42.29;102748.03;5058750;27;45346;-77
2022/02/07 16:00:34;;;;;;;;;15.33;11.67;;;;;23.37;42.04;102744.44;5073602;27;49743;-78
2022/02/07 16:02:59;;;;;;;;;13.67;9.33;;;;;23.34;42.19;102742.84;5065154;28;45609;-77
2022/02/07 16:05:26;;;;;;;;;11.00;9.00;;;;;23.36;42.36;102745.44;5066988;28;45660;-75
2022/02/07 16:07:58;;;;;;;;;17.00;9.00;;;;;23.36;42.23;102745.44;5066559;27;45537;-73
2022/02/07 16:10:26;;;;;;;;;14.00;11.67;;;;;23.36;42.59;102734.59;5067028;27;46045;-74
2022/02/07 16:13:01;;;;;;;;;12.67;9.33;;;;;23.36;42.72;102743.59;5056690;27;45384;-72
2022/02/07 16:15:26;;;;;;;;;13.00;9.00;;;;;23.36;43.23;102737.31;5071517;28;45427;-73
2022/02/07 16:17:51;;;;;;;;;10.00;8.33;;;;;23.38;43.09;102743.50;5068957;28;45668;-72
2022/02/07 16:20:17;;;;;;;;;17.67;10.33;;;;;23.40;43.13;102736.97;5066044;27;45574;-73
2022/02/07 16:22:42;;;;;;;;;16.33;10.33;;;;;23.45;43.45;102744.72;5067703;28;45667;-72
2022/02/07 16:25:08;;;;;;;;;11.00;9.00;;;;;23.48;42.74;102747.22;5060682;28;45801;-72
2022/02/07 16:27:33;;;;;;;;;11.33;7.00;;;;;23.51;43.29;102741.53;5069693;28;45410;-73
2022/02/07 16:29:59;;;;;;;;;11.33;8.67;;;;;23.54;42.98;102749.44;5069283;28;45468;-73
2022/02/07 16:32:24;;;;;;;;;10.33;7.33;;;;;23.50;43.14;102736.25;5064676;28;45414;-73
2022/02/07 16:34:49;;;;;;;;;10.00;7.67;;;;;23.61;43.57;102749.81;5062364;27;45976;-79
2022/02/07 16:37:15;;;;;;;;;7.00;6.00;;;;;23.64;43.29;102751.41;5055854;28;45643;-77
2022/02/07 16:39:44;;;;;;;;;11.33;8.33;;;;;23.66;43.41;102746.72;5064058;28;45608;-86
2022/02/07 16:42:10;;;;;;;;;14.33;11.00;;;;;23.65;43.04;102740.47;5068205;27;45548;-73
2022/02/07 16:44:35;;;;;;;;;20.67;10.67;;;;;23.65;42.60;102735.03;5070140;27;45494;-74
2022/02/07 17:47:11;;;;;;;;;8.00;8.00;;;;;19.54;47.77;102803.50;5071042;27;46456;-73
2022/02/07 17:49:37;;;;;;;;;14.75;9.50;;;;;19.67;48.08;102799.13;5039143;28;45541;-73
2022/02/07 17:52:04;;;;;;;;;12.00;9.00;;;;;19.88;48.13;102810.38;5060864;28;45536;-73
2022/02/07 17:54:32;;;;;;;;;13.33;7.67;;;;;20.10;47.95;102802.84;5065185;28;45860;-71
2022/02/07 17:57:02;;;;;;;;;13.00;10.00;;;;;20.34;47.89;102799.56;5062380;28;47217;-74
2022/02/07 17:59:27;;;;;;;;;10.00;6.33;;;;;20.58;47.86;102797.16;5060830;28;45391;-74
2022/02/07 18:01:56;;;;;;;;;15.00;9.00;;;;;20.84;47.46;102799.13;5059423;28;45340;-73
2022/02/07 18:04:23;;;;;;;;;11.00;9.33;;;;;21.06;47.23;102793.19;5059401;28;45498;-74
2022/02/07 18:06:48;;;;;;;;;9.00;8.00;;;;;21.26;47.23;102791.84;5061468;27;45553;-72
2022/02/07 18:09:14;;;;;;;;;13.00;8.00;;;;;21.45;47.06;102791.47;5064605;27;45817;-72